.
WxDataArchive / Data Records for 2012-05-19
2012-05-18 May 2012 2012-05-20

Data Records for Saturday, 19 May 2012

Time	Temp	Chill	HIndex	Humid	Dewpt	 Wind 	HiWind	WindDir	Rain 	Barom 
-----	----	-----	------	-----	-----	------	------	-------	-----	----- 
00:00	58.6	58.6	58.6	67	47.7	0	0	---	0.00	30.057 
00:05	58.4	58.4	58.4	65	46.7	0	0	---	0.00	30.057 
00:10	58.4	58.4	58.4	64	46.3	0	0	---	0.00	30.057 
00:15	58.3	58.3	58.3	60	44.5	0	0	---	0.00	30.056 
00:20	58.3	58.3	58.3	55	42.2	0	0	---	0.00	30.056 
00:25	58.3	58.3	58.3	52	40.8	0	2	45	0.00	30.056 
00:30	58.4	58.4	58.4	52	40.8	0	0	---	0.00	30.056 
00:35	58.4	58.4	58.4	51	40.3	0	0	---	0.00	30.056 
00:40	58.4	58.4	58.4	51	40.3	0	0	---	0.00	30.056 
00:45	58.3	58.3	58.3	51	40.3	0	0	---	0.00	30.055 
00:50	58.3	58.3	58.3	51	40.3	0	0	---	0.00	30.055 
00:55	58.1	58.1	58.1	51	40.1	0	0	---	0.00	30.055 
01:00	58.0	58.0	58.0	53	41.0	0	0	---	0.00	30.056 
01:05	57.8	57.8	57.8	54	41.3	0	0	---	0.00	30.056 
01:10	57.8	57.8	57.8	55	41.7	0	0	---	0.00	30.056 
01:15	57.6	57.6	57.6	56	42.0	0	0	---	0.00	30.054 
01:20	57.8	57.8	57.8	56	42.2	0	0	---	0.00	30.054 
01:25	57.8	57.8	57.8	56	42.2	0	0	---	0.00	30.054 
01:30	58.0	58.0	58.0	57	42.9	0	1	45	0.00	30.054 
01:35	57.8	57.8	57.8	57	42.7	0	0	---	0.00	30.054 
01:40	57.6	57.6	57.6	57	42.5	0	0	---	0.00	30.054 
01:45	57.5	57.5	57.5	58	42.8	0	0	---	0.00	30.054 
01:50	57.2	57.2	57.2	58	42.6	0	0	---	0.00	30.054 
01:55	57.0	57.0	57.0	59	42.8	0	0	---	0.00	30.054 
02:00	56.7	56.7	56.7	60	43.0	0	0	---	0.00	30.052 
02:05	56.5	56.5	56.5	61	43.2	0	0	---	0.00	30.052 
02:10	56.3	56.3	56.3	62	43.4	0	0	---	0.00	30.052 
02:15	56.0	56.0	56.0	62	43.2	0	0	---	0.00	30.051 
02:20	55.9	55.9	55.9	62	43.1	0	0	---	0.00	30.051 
02:25	55.7	55.7	55.7	63	43.3	0	0	---	0.00	30.051 
02:30	55.6	55.6	55.6	63	43.2	0	0	---	0.00	30.053 
02:35	55.4	55.4	55.4	64	43.4	0	0	---	0.00	30.053 
02:40	55.1	55.1	55.1	65	43.5	0	0	---	0.00	30.053 
02:45	55.0	55.0	55.0	65	43.5	0	0	---	0.00	30.054 
02:50	54.8	54.8	54.8	66	43.7	0	0	---	0.00	30.054 
02:55	54.5	54.5	54.5	67	43.8	0	0	---	0.00	30.054 
03:00	54.4	54.4	54.4	68	44.1	0	0	---	0.00	30.052 
03:05	54.1	54.1	54.1	69	44.2	0	0	---	0.00	30.052 
03:10	53.9	53.9	53.9	69	44.0	0	0	---	0.00	30.052 
03:15	53.6	53.6	53.6	70	44.1	0	0	---	0.00	30.052 
03:20	53.5	53.5	53.5	70	44.0	0	0	---	0.00	30.052 
03:25	53.3	53.3	53.3	71	44.1	0	0	---	0.00	30.052 
03:30	53.2	53.2	53.2	72	44.4	0	0	---	0.00	30.054 
03:35	53.1	53.1	53.1	73	44.7	0	0	---	0.00	30.054 
03:40	52.9	52.9	52.9	73	44.5	0	0	---	0.00	30.054 
03:45	52.6	52.6	52.6	74	44.6	0	0	---	0.00	30.055 
03:50	52.5	52.5	52.5	74	44.5	0	0	---	0.00	30.055 
03:55	52.3	52.3	52.3	75	44.6	0	0	---	0.00	30.055 
04:00	52.2	52.2	52.2	76	44.9	0	0	---	0.00	30.057 
04:05	52.0	52.0	52.0	77	45.0	0	0	---	0.00	30.057 
04:10	51.9	51.9	51.9	77	44.9	0	0	---	0.00	30.057 
04:15	51.7	51.7	51.7	79	45.4	0	0	---	0.00	30.057 
04:20	51.6	51.6	51.6	81	46.0	0	0	---	0.00	30.057 
04:25	51.4	51.4	51.4	81	45.8	0	0	---	0.00	30.057 
04:30	51.3	51.3	51.3	82	46.0	0	0	---	0.00	30.058 
04:35	51.1	51.1	51.1	82	45.8	0	0	---	0.00	30.058 
04:40	51.0	51.0	51.0	83	46.0	0	0	---	0.00	30.058 
04:45	50.8	50.8	50.8	83	45.8	0	0	---	0.00	30.060 
04:50	50.8	50.8	50.8	83	45.8	0	0	---	0.00	30.060 
04:55	50.7	50.7	50.7	84	46.0	0	0	---	0.00	30.060 
05:00	50.5	50.5	50.5	84	45.8	0	0	---	0.00	30.061 
05:05	50.4	50.4	50.4	84	45.7	0	0	---	0.00	30.061 
05:10	50.2	50.2	50.2	84	45.6	0	0	---	0.00	30.061 
05:15	50.1	50.1	50.1	84	45.5	0	0	---	0.00	30.066 
05:20	50.1	50.1	50.1	84	45.5	0	0	---	0.00	30.066 
05:25	49.9	49.9	49.9	84	45.3	0	0	---	0.00	30.066 
05:30	49.8	49.8	49.8	84	45.2	0	0	---	0.00	30.062 
05:35	49.8	49.8	49.8	85	45.5	0	0	---	0.00	30.062 
05:40	49.6	49.6	49.6	85	45.3	0	0	---	0.00	30.062 
05:45	49.5	49.5	49.5	85	45.2	0	0	---	0.00	30.064 
05:50	49.4	49.4	49.4	85	45.1	0	0	---	0.00	30.064 
05:55	49.2	49.2	49.2	86	45.2	0	0	---	0.00	30.064 
06:00	49.2	49.2	49.2	86	45.2	0	0	---	0.00	30.068 
06:05	49.1	49.1	49.1	86	45.1	0	0	---	0.00	30.068 
06:10	49.1	49.1	49.1	87	45.4	0	0	---	0.00	30.068 
06:15	49.1	49.1	49.1	87	45.4	0	0	---	0.00	30.070 
06:20	48.9	48.9	48.9	87	45.2	0	0	---	0.00	30.070 
06:25	48.8	48.8	48.8	88	45.4	0	0	---	0.00	30.070 
06:30	48.8	48.8	48.8	88	45.4	0	0	---	0.00	30.074 
06:35	48.8	48.8	48.8	88	45.4	0	0	---	0.00	30.074 
06:40	48.6	48.6	48.6	88	45.2	0	0	---	0.00	30.074 
06:45	48.8	48.8	48.8	89	45.7	0	0	---	0.00	30.076 
06:50	48.8	48.8	48.8	89	45.7	0	0	---	0.00	30.076 
06:55	48.9	48.9	48.9	89	45.8	0	0	---	0.00	30.076 
07:00	49.1	49.1	49.1	90	46.3	0	0	---	0.00	30.077 
07:05	49.2	49.2	49.2	90	46.4	0	0	---	0.00	30.077 
07:10	49.4	49.4	49.4	90	46.6	0	0	---	0.00	30.077 
07:15	49.6	49.6	49.6	91	47.1	0	0	---	0.00	30.090 
07:20	50.1	50.1	50.1	91	47.6	0	0	---	0.00	30.090 
07:25	50.7	50.7	50.7	91	48.2	0	0	---	0.00	30.090 
07:30	51.4	51.4	51.4	92	49.2	0	0	---	0.00	30.091 
07:35	52.2	52.2	52.2	90	49.4	0	0	---	0.00	30.091 
07:40	53.1	53.1	53.1	90	50.2	0	0	---	0.00	30.091 
07:45	54.4	54.4	54.4	85	50.0	0	0	---	0.00	30.090 
07:50	56.0	56.0	56.0	78	49.2	0	0	---	0.00	30.090 
07:55	57.5	57.5	57.5	74	49.3	0	0	---	0.00	30.090 
08:00	59.0	59.0	59.0	70	49.2	0	0	---	0.00	30.089 
08:05	60.1	60.1	60.1	66	48.7	0	2	45	0.00	30.089 
08:10	61.2	61.2	61.2	63	48.5	0	1	45	0.00	30.089 
08:15	62.3	62.3	62.3	61	48.7	0	1	45	0.00	30.088 
08:20	63.4	63.4	63.4	59	48.8	0	1	45	0.00	30.088 
08:25	64.3	64.3	64.3	57	48.7	0	1	45	0.00	30.088 
08:30	65.2	65.2	65.2	55	48.6	0	2	45	0.00	30.091 
08:35	66.0	66.0	66.0	52	47.9	0	1	45	0.00	30.091 
08:40	66.8	66.8	66.8	50	47.6	0	1	45	0.00	30.091 
08:45	67.8	67.8	67.8	50	48.5	0	1	45	0.00	30.093 
08:50	68.4	68.4	68.4	47	47.4	0	1	45	0.00	30.093 
08:55	68.9	68.9	68.9	48	48.4	0	1	45	0.00	30.093 
09:00	69.6	69.6	69.6	46	47.9	0	1	45	0.00	30.095 
09:05	70.3	70.3	70.3	46	48.5	0	2	45	0.00	30.095 
09:10	70.8	70.8	70.8	46	49.0	0	1	45	0.00	30.095 
09:15	71.1	71.1	71.1	46	49.3	0	1	45	0.00	30.103 
09:20	71.5	71.5	71.5	46	49.6	0	1	45	0.00	30.103 
09:25	72.3	72.3	72.3	43	48.5	0	1	45	0.00	30.103 
09:30	73.0	73.0	73.0	41	47.9	0	1	45	0.00	30.106 
09:35	73.7	73.7	73.7	43	49.8	0	1	45	0.00	30.106 
09:40	74.2	74.2	74.2	46	52.1	0	1	45	0.00	30.106 
09:45	74.9	74.9	74.9	41	49.6	0	1	45	0.00	30.109 
09:50	75.3	75.3	77.5	39	48.6	0	2	45	0.00	30.109 
09:55	74.9	74.9	74.9	42	50.2	1	3	45	0.00	30.109 
10:00	74.9	74.9	74.9	42	50.2	0	2	45	0.00	30.112 
10:05	75.3	75.3	77.6	41	50.0	0	2	45	0.00	30.112 
10:10	75.6	75.6	77.7	40	49.6	0	2	45	0.00	30.112 
10:15	76.1	76.1	77.9	42	51.3	0	0	---	0.00	30.116 
10:20	76.8	76.8	78.0	38	49.2	0	2	45	0.00	30.116 
10:25	77.6	77.6	78.4	37	49.2	0	2	45	0.00	30.116 
10:30	78.3	78.3	78.8	38	50.6	0	1	45	0.00	30.114 
10:35	78.6	78.6	78.7	35	48.6	1	4	45	0.00	30.114 
10:40	78.6	78.6	78.7	35	48.6	0	4	90	0.00	30.114 
10:45	78.8	78.8	78.9	36	49.6	0	2	90	0.00	30.111 
10:50	79.2	79.2	79.3	38	51.4	1	3	90	0.00	30.111 
10:55	79.8	79.8	79.6	37	51.2	0	2	90	0.00	30.111 
11:00	79.9	79.9	79.3	32	47.4	1	3	90	0.00	30.111 
11:05	79.9	79.9	79.5	35	49.8	0	2	68	0.00	30.111 
11:10	80.5	80.5	79.4	28	44.4	1	2	68	0.00	30.111 
11:15	80.9	80.9	79.7	29	45.6	0	3	68	0.00	30.113 
11:20	81.2	81.2	79.8	28	45.0	1	3	45	0.00	30.113 
11:25	81.4	81.4	79.9	27	44.2	0	1	45	0.00	30.113 
11:30	81.8	81.8	80.3	30	47.3	0	3	45	0.00	30.113 
11:35	81.8	81.8	80.3	29	46.4	0	1	45	0.00	30.113 
11:40	82.0	82.0	80.4	29	46.6	1	4	45	0.00	30.113 
11:45	82.2	82.2	80.4	27	44.9	1	3	90	0.00	30.111 
11:50	82.2	82.2	80.7	31	48.5	0	2	90	0.00	30.111 
11:55	82.2	82.2	80.4	27	44.9	1	4	90	0.00	30.111 
12:00	82.4	82.4	80.5	26	44.0	1	3	90	0.00	30.111 
12:05	82.6	82.6	80.8	28	46.2	0	2	90	0.00	30.111 
12:10	82.6	82.6	80.7	27	45.2	0	1	90	0.00	30.111 
12:15	82.8	82.8	80.7	25	43.4	1	3	90	0.00	30.111 
12:20	83.2	83.2	81.1	27	45.7	1	4	90	0.00	30.111 
12:25	83.4	83.4	81.1	25	43.9	1	3	90	0.00	30.111 
12:30	83.2	83.2	81.2	28	46.7	0	2	90	0.00	30.111 
12:35	83.6	83.6	81.3	26	45.1	0	3	90	0.00	30.111 
12:40	83.6	83.6	81.3	26	45.1	1	4	90	0.00	30.111 
12:45	84.0	84.0	81.7	27	46.4	1	3	90	0.00	30.106 
12:50	83.8	83.8	81.4	24	43.1	2	4	90	0.00	30.106 
12:55	83.8	83.8	81.5	26	45.2	1	3	112	0.00	30.106 
13:00	83.8	83.8	81.6	27	46.2	1	3	112	0.00	30.101 
13:05	84.1	84.1	81.6	24	43.4	1	3	112	0.00	30.101 
13:10	84.3	84.3	81.8	25	44.6	1	3	90	0.00	30.101 
13:15	84.5	84.5	82.1	27	46.8	1	3	90	0.00	30.099 
13:20	84.9	84.9	82.1	23	42.9	1	4	90	0.00	30.099 
13:25	85.3	85.3	82.4	22	42.1	1	3	90	0.00	30.099 
13:30	85.1	85.1	82.2	22	41.9	2	6	68	0.00	30.096 
13:35	85.3	85.3	82.4	22	42.1	1	4	112	0.00	30.096 
13:40	85.1	85.1	82.2	21	40.7	2	5	112	0.00	30.096 
13:45	84.9	84.9	82.2	24	44.1	2	6	90	0.00	30.090 
13:50	85.3	85.3	82.5	24	44.4	1	3	112	0.00	30.090 
13:55	85.5	85.5	82.6	23	43.4	1	4	112	0.00	30.090 
14:00	85.7	85.7	82.8	23	43.6	1	2	112	0.00	30.083 
14:05	85.7	85.7	82.6	21	41.2	1	4	112	0.00	30.083 
14:10	85.5	85.5	82.5	21	41.1	1	4	270	0.00	30.083 
14:15	85.5	85.5	82.5	22	42.3	2	6	90	0.00	30.084 
14:20	85.3	85.3	82.4	22	42.1	2	6	90	0.00	30.084 
14:25	85.5	85.5	82.5	22	42.3	1	4	292	0.00	30.084 
14:30	86.3	86.3	83.3	23	44.1	1	3	270	0.00	30.076 
14:35	86.7	86.7	83.5	21	42.1	2	5	90	0.00	30.076 
14:40	86.7	86.7	83.4	20	40.8	2	6	90	0.00	30.076 
14:45	86.7	86.7	83.3	19	39.5	2	4	90	0.00	30.074 
14:50	87.0	87.0	83.8	22	43.5	1	4	292	0.00	30.074 
14:55	87.2	87.2	83.9	21	42.5	2	5	90	0.00	30.074 
15:00	87.2	87.2	83.8	19	39.9	2	5	68	0.00	30.069 
15:05	87.4	87.4	84.0	20	41.4	2	5	135	0.00	30.069 
15:10	87.4	87.4	84.0	20	41.4	1	4	68	0.00	30.069 
15:15	87.4	87.4	83.9	19	40.1	1	5	292	0.00	30.069 
15:20	87.4	87.4	84.1	21	42.6	1	3	292	0.00	30.069 
15:25	87.8	87.8	84.4	21	43.0	1	3	68	0.00	30.069 
15:30	88.0	88.0	84.7	22	44.4	2	5	90	0.00	30.065 
15:35	87.8	87.8	84.4	21	43.0	2	4	90	0.00	30.065 
15:40	87.8	87.8	84.3	19	40.4	1	5	112	0.00	30.065 
15:45	88.0	88.0	84.5	20	41.9	0	2	112	0.00	30.058 
15:50	88.2	88.2	84.8	21	43.3	0	2	112	0.00	30.058 
15:55	88.6	88.6	85.1	21	43.6	1	5	90	0.00	30.058 
16:00	88.4	88.4	84.9	20	42.2	1	4	270	0.00	30.054 
16:05	88.4	88.4	84.9	20	42.2	1	2	270	0.00	30.054 
16:10	88.6	88.6	84.9	18	39.6	1	5	112	0.00	30.054 
16:15	88.6	88.6	85.0	20	42.4	1	4	270	0.00	30.054 
16:20	88.6	88.6	85.0	19	41.0	0	2	270	0.00	30.054 
16:25	88.4	88.4	84.8	19	40.9	1	3	90	0.00	30.054 
16:30	88.6	88.6	85.0	19	41.0	1	2	90	0.00	30.052 
16:35	88.2	88.2	84.6	18	39.3	1	3	270	0.00	30.052 
16:40	87.8	87.8	84.3	19	40.4	1	4	270	0.00	30.052 
16:45	87.8	87.8	84.4	21	43.0	1	4	112	0.00	30.053 
16:50	88.0	88.0	84.5	20	41.9	0	2	112	0.00	30.053 
16:55	88.2	88.2	84.6	18	39.3	1	3	112	0.00	30.053 
17:00	88.2	88.2	84.9	22	44.5	0	3	68	0.00	30.051 
17:05	88.2	88.2	84.6	19	40.7	1	4	112	0.00	30.051 
17:10	88.2	88.2	84.6	18	39.3	1	5	90	0.00	30.051 
17:15	88.0	88.0	84.4	19	40.5	1	2	270	0.00	30.053 
17:20	88.0	88.0	84.4	19	40.5	1	2	270	0.00	30.053 
17:25	87.8	87.8	84.3	20	41.7	1	4	270	0.00	30.053 
17:30	88.0	88.0	84.4	19	40.5	1	3	90	0.00	30.052 
17:35	88.0	88.0	84.4	19	40.5	0	2	90	0.00	30.052 
17:40	87.8	87.8	84.3	19	40.4	1	4	112	0.00	30.052 
17:45	87.6	87.6	84.1	19	40.2	1	3	112	0.00	30.053 
17:50	87.4	87.4	84.0	20	41.4	1	2	135	0.00	30.053 
17:55	87.4	87.4	83.9	19	40.1	0	2	135	0.00	30.053 
18:00	87.4	87.4	83.9	18	38.7	0	1	135	0.00	30.047 
18:05	87.0	87.0	83.5	18	38.3	0	2	135	0.00	30.047 
18:10	86.7	86.7	83.3	19	39.5	1	2	135	0.00	30.047 
18:15	86.5	86.5	83.2	20	40.6	0	1	135	0.00	30.045 
18:20	86.3	86.3	83.1	20	40.5	0	2	135	0.00	30.045 
18:25	86.1	86.1	82.9	20	40.3	0	1	135	0.00	30.045 
18:30	85.9	85.9	82.8	21	41.4	0	1	135	0.00	30.043 
18:35	85.9	85.9	82.7	20	40.1	0	1	135	0.00	30.043 
18:40	85.7	85.7	82.5	19	38.7	0	1	135	0.00	30.043 
18:45	85.7	85.7	82.5	19	38.7	0	1	135	0.00	30.041 
18:50	85.5	85.5	82.4	19	38.5	0	1	135	0.00	30.041 
18:55	85.5	85.5	82.4	19	38.5	0	1	135	0.00	30.041 
19:00	85.3	85.3	82.3	20	39.7	0	1	135	0.00	30.040 
19:05	85.1	85.1	82.1	19	38.2	0	1	135	0.00	30.040 
19:10	85.1	85.1	82.1	19	38.2	1	3	135	0.00	30.040 
19:15	85.1	85.1	82.1	20	39.5	0	1	135	0.00	30.030 
19:20	84.9	84.9	81.9	19	38.0	0	1	135	0.00	30.030 
19:25	84.9	84.9	82.0	20	39.3	0	1	135	0.00	30.030 
19:30	84.7	84.7	81.8	19	37.9	0	2	135	0.00	30.031 
19:35	84.7	84.7	81.8	20	39.2	0	1	135	0.00	30.031 
19:40	84.5	84.5	81.7	20	39.0	0	1	135	0.00	30.031 
19:45	84.3	84.3	81.5	20	38.8	0	1	135	0.00	30.034 
19:50	84.1	84.1	81.4	21	39.9	0	2	135	0.00	30.034 
19:55	84.0	84.0	81.3	20	38.6	0	1	135	0.00	30.034 
20:00	83.8	83.8	81.2	21	39.7	0	1	135	0.00	30.035 
20:05	83.6	83.6	81.0	21	39.5	0	0	---	0.00	30.035 
20:10	83.2	83.2	80.8	22	40.4	0	0	---	0.00	30.035 
20:15	82.8	82.8	80.5	22	40.0	0	0	---	0.00	30.027 
20:20	82.2	82.2	80.1	22	39.5	0	0	---	0.00	30.027 
20:25	81.8	81.8	79.9	23	40.4	0	0	---	0.00	30.027 
20:30	81.2	81.2	79.5	24	41.0	0	0	---	0.00	30.029 
20:35	80.7	80.7	79.2	24	40.5	0	0	---	0.00	30.029 
20:40	80.1	80.1	78.9	25	41.1	0	0	---	0.00	30.029 
20:45	79.4	79.4	78.6	26	41.5	0	0	---	0.00	30.031 
20:50	78.8	78.8	78.3	26	41.0	0	0	---	0.00	30.031 
20:55	78.1	78.1	78.0	27	41.4	0	0	---	0.00	30.031 
21:00	77.4	77.4	77.7	28	41.7	0	0	---	0.00	30.033 
21:05	76.7	76.7	77.4	28	41.1	0	0	---	0.00	30.033 
21:10	76.0	76.0	77.2	29	41.4	0	0	---	0.00	30.033 
21:15	75.4	75.4	77.0	29	40.9	0	0	---	0.00	30.036 
21:20	74.9	74.9	74.9	29	40.5	0	0	---	0.00	30.036 
21:25	74.6	74.6	74.6	31	42.0	0	0	---	0.00	30.036 
21:30	74.0	74.0	74.0	32	42.3	0	0	---	0.00	30.042 
21:35	73.5	73.5	73.5	33	42.6	0	0	---	0.00	30.042 
21:40	73.0	73.0	73.0	33	42.2	0	0	---	0.00	30.042 
21:45	72.5	72.5	72.5	34	42.5	0	0	---	0.00	30.045 
21:50	72.0	72.0	72.0	35	42.8	0	0	---	0.00	30.045 
21:55	71.6	71.6	71.6	36	43.2	0	0	---	0.00	30.045 
22:00	71.1	71.1	71.1	38	44.2	0	0	---	0.00	30.048 
22:05	70.8	70.8	70.8	39	44.6	0	0	---	0.00	30.048 
22:10	70.3	70.3	70.3	40	44.8	0	0	---	0.00	30.048 
22:15	69.9	69.9	69.9	42	45.8	0	0	---	0.00	30.047 
22:20	69.4	69.4	69.4	42	45.3	0	0	---	0.00	30.047 
22:25	69.1	69.1	69.1	43	45.7	0	0	---	0.00	30.047 
22:30	68.8	68.8	68.8	43	45.4	0	0	---	0.00	30.057 
22:35	68.4	68.4	68.4	43	45.0	0	0	---	0.00	30.057 
22:40	68.1	68.1	68.1	45	45.9	0	0	---	0.00	30.057 
22:45	67.8	67.8	67.8	46	46.3	0	0	---	0.00	30.060 
22:50	67.6	67.6	67.6	46	46.1	0	0	---	0.00	30.060 
22:55	67.3	67.3	67.3	48	46.9	0	0	---	0.00	30.060 
23:00	66.9	66.9	66.9	49	47.1	0	0	---	0.00	30.063 
23:05	66.6	66.6	66.6	50	47.4	0	0	---	0.00	30.063 
23:10	66.4	66.4	66.4	51	47.7	0	0	---	0.00	30.063 
23:15	66.1	66.1	66.1	51	47.4	0	0	---	0.00	30.064 
23:20	65.8	65.8	65.8	52	47.7	0	0	---	0.00	30.064 
23:25	65.6	65.6	65.6	52	47.5	0	0	---	0.00	30.064 
23:30	65.5	65.5	65.5	53	47.9	0	0	---	0.00	30.063 
23:35	65.2	65.2	65.2	53	47.6	0	0	---	0.00	30.063 
23:40	65.0	65.0	65.0	54	47.9	0	0	---	0.00	30.063 
23:45	64.8	64.8	64.8	54	47.8	0	0	---	0.00	30.064 
23:50	64.5	64.5	64.5	54	47.5	0	0	---	0.00	30.064 
23:55	64.3	64.3	64.3	54	47.3	0	0	---	0.00	30.064 

CoCoRaHS
IN-AL-39
A2 Web Hosting
Creative Commons License
GoDaddy
search engine by freefind advanced

loaded 2018-11-15 05:08:08 • last modified 2010-11-18 10:43:29
Privacy PolicyDisclaimer
• wx.awcolley.com is powered by PmWiki v.2002016 •
• all content (unless otherwise noted) © 2018 A W Colley